createdAt,value
2019-03-05T00:00:07.574Z,7.02
2019-03-05T00:01:07.563Z,6.97
2019-03-05T00:02:07.554Z,7.07
2019-03-05T00:03:07.568Z,7.01
2019-03-05T00:04:08.506Z,7.02
2019-03-05T00:05:07.576Z,6.98
2019-03-05T00:06:07.579Z,7.07
2019-03-05T00:07:07.496Z,7.07
2019-03-05T00:08:07.612Z,7.09
2019-03-05T00:09:07.476Z,7.05
2019-03-05T00:10:07.465Z,7.07
2019-03-05T00:11:07.457Z,7.07
2019-03-05T00:12:07.444Z,7.12
2019-03-05T00:13:07.433Z,7.07
2019-03-05T00:14:07.431Z,7.07
2019-03-05T00:15:07.422Z,7.13
2019-03-05T00:16:07.401Z,7.08
2019-03-05T00:17:07.383Z,7.13
2019-03-05T00:18:07.373Z,7.17
2019-03-05T00:19:07.433Z,7.17
2019-03-05T00:20:07.353Z,7.16
2019-03-05T00:21:07.339Z,7.13
2019-03-05T00:22:07.328Z,7.22
2019-03-05T00:23:08.316Z,7.17
2019-03-05T00:24:07.306Z,7.26
2019-03-05T00:25:07.335Z,7.27
2019-03-05T00:26:07.284Z,7.15
2019-03-05T00:27:07.274Z,7.26
2019-03-05T00:28:07.269Z,7.31
2019-03-05T00:29:07.256Z,7.34
2019-03-05T00:30:07.239Z,7.32
2019-03-05T00:31:07.292Z,7.31
2019-03-05T00:32:07.286Z,7.27
2019-03-05T00:33:07.208Z,7.38
2019-03-05T00:34:07.205Z,7.38
2019-03-05T00:35:07.189Z,7.37
2019-03-05T00:36:07.232Z,7.35
2019-03-05T00:37:07.199Z,7.24
2019-03-05T00:38:07.165Z,7.37
2019-03-05T00:39:07.176Z,7.27
2019-03-05T00:40:07.136Z,7.27
2019-03-05T00:41:07.123Z,7.27
2019-03-05T00:42:07.176Z,7.32
2019-03-05T00:43:07.101Z,7.29
2019-03-05T00:44:07.097Z,7.38
2019-03-05T00:45:07.080Z,7.45
2019-03-05T00:46:07.084Z,7.38
2019-03-05T00:47:07.057Z,7.41
2019-03-05T00:48:07.077Z,7.38
2019-03-05T00:49:07.100Z,7.38
2019-03-05T00:50:07.023Z,7.38
2019-03-05T00:51:07.014Z,7.38
2019-03-05T00:52:07.002Z,7.42
2019-03-05T00:53:07.061Z,7.50
2019-03-05T00:54:07.011Z,7.47
2019-03-05T00:55:06.976Z,7.47
2019-03-05T00:56:06.957Z,7.40
2019-03-05T00:57:06.958Z,7.49
2019-03-05T00:58:06.966Z,7.47
2019-03-05T00:59:06.919Z,7.44
2019-03-05T01:00:06.908Z,7.47
2019-03-05T01:01:06.940Z,7.47
2019-03-05T01:02:06.886Z,7.42
2019-03-05T01:03:06.876Z,7.52
2019-03-05T01:04:06.912Z,7.52
2019-03-05T01:05:06.858Z,7.49
2019-03-05T01:06:06.850Z,7.50
2019-03-05T01:07:06.831Z,7.45
2019-03-05T01:08:06.820Z,7.45
2019-03-05T01:09:06.832Z,7.42
2019-03-05T01:10:06.809Z,7.44
2019-03-05T01:11:06.824Z,7.47
2019-03-05T01:12:06.781Z,7.53
2019-03-05T01:13:06.770Z,7.42
2019-03-05T01:14:06.761Z,7.52
2019-03-05T01:15:06.778Z,7.58
2019-03-05T01:16:06.739Z,7.49
2019-03-05T01:17:06.725Z,7.49
2019-03-05T01:18:06.717Z,7.59
2019-03-05T01:19:06.704Z,7.47
2019-03-05T01:20:06.717Z,7.45
2019-03-05T01:21:06.702Z,7.52
2019-03-05T01:22:06.676Z,7.47
2019-03-05T01:23:06.659Z,7.52
2019-03-05T01:24:06.649Z,7.45
2019-03-05T01:25:06.647Z,7.47
2019-03-05T01:26:06.721Z,7.47
2019-03-05T01:27:06.630Z,7.50
2019-03-05T01:28:06.600Z,7.42
2019-03-05T01:29:06.602Z,7.49
2019-03-05T01:30:06.610Z,7.38
2019-03-05T01:31:06.615Z,7.40
2019-03-05T01:32:06.580Z,7.41
2019-03-05T01:33:06.564Z,7.38
2019-03-05T01:34:06.534Z,7.35
2019-03-05T01:35:06.532Z,7.38
2019-03-05T01:36:06.511Z,7.40
2019-03-05T01:37:06.527Z,7.31
2019-03-05T01:38:06.502Z,7.31
2019-03-05T01:39:06.483Z,7.26
2019-03-05T01:40:06.477Z,7.24
2019-03-05T01:41:06.468Z,7.23
2019-03-05T01:42:06.446Z,7.27
2019-03-05T01:43:06.459Z,7.23
2019-03-05T01:44:06.437Z,7.27
2019-03-05T01:45:06.426Z,7.22
2019-03-05T01:46:06.412Z,7.24
2019-03-05T01:47:06.459Z,7.13
2019-03-05T01:48:06.399Z,7.12
2019-03-05T01:49:06.377Z,7.17
2019-03-05T01:50:06.361Z,7.17
2019-03-05T01:51:06.360Z,7.15
2019-03-05T01:52:06.337Z,7.13
2019-03-05T01:53:06.348Z,7.12
2019-03-05T01:54:06.366Z,7.13
2019-03-05T01:55:06.313Z,7.08
2019-03-05T01:56:06.298Z,7.04
2019-03-05T01:57:06.301Z,7.07
2019-03-05T01:58:06.313Z,7.13
2019-03-05T01:59:06.320Z,7.17
2019-03-05T02:00:06.247Z,7.12
2019-03-05T02:01:06.285Z,7.15
2019-03-05T02:02:06.225Z,7.09
2019-03-05T02:03:06.227Z,7.09
2019-03-05T02:04:06.206Z,7.09
2019-03-05T02:05:06.226Z,7.08
2019-03-05T02:06:06.191Z,7.09
2019-03-05T02:07:06.193Z,6.99
2019-03-05T02:08:06.175Z,6.98
2019-03-05T02:09:06.152Z,6.95
2019-03-05T02:10:06.180Z,7.05
2019-03-05T02:11:06.169Z,6.98
2019-03-05T02:12:06.123Z,6.90
2019-03-05T02:13:06.157Z,7.08
2019-03-05T02:14:06.099Z,7.04
2019-03-05T02:15:06.100Z,7.05
2019-03-05T02:16:06.150Z,7.05
2019-03-05T02:17:06.061Z,6.99
2019-03-05T02:18:06.063Z,7.05
2019-03-05T02:19:06.054Z,7.01
2019-03-05T02:20:06.066Z,6.99
2019-03-05T02:21:06.028Z,7.08
2019-03-05T02:22:06.006Z,7.05
2019-03-05T02:23:06.001Z,6.99
2019-03-05T02:24:05.979Z,7.05
2019-03-05T02:25:05.974Z,7.04
2019-03-05T02:26:05.978Z,7.08
2019-03-05T02:27:05.947Z,7.02
2019-03-05T02:28:05.941Z,6.99
2019-03-05T02:29:05.937Z,6.98
2019-03-05T02:30:05.916Z,6.91
2019-03-05T02:31:05.974Z,6.95
2019-03-05T02:32:05.906Z,6.81
2019-03-05T02:33:05.897Z,6.80
2019-03-05T02:34:05.881Z,6.81
2019-03-05T02:35:05.885Z,6.86
2019-03-05T02:36:05.850Z,6.83
2019-03-05T02:37:05.857Z,6.80
2019-03-05T02:38:06.089Z,6.83
2019-03-05T02:39:05.823Z,6.73
2019-03-05T02:40:05.813Z,6.76
2019-03-05T02:41:05.801Z,6.76
2019-03-05T02:42:05.846Z,6.73
2019-03-05T02:43:05.774Z,6.73
2019-03-05T02:44:05.779Z,6.77
2019-03-05T02:45:05.761Z,6.73
2019-03-05T02:46:05.750Z,6.62
2019-03-05T02:47:05.896Z,6.68
2019-03-05T02:48:05.728Z,6.66
2019-03-05T02:49:05.727Z,6.65
2019-03-05T02:50:05.710Z,6.63
2019-03-05T02:51:05.698Z,6.54
2019-03-05T02:52:05.674Z,6.59
2019-03-05T02:53:05.730Z,6.61
2019-03-05T02:54:05.689Z,6.58
2019-03-05T02:55:05.643Z,6.59
2019-03-05T02:56:05.641Z,6.47
2019-03-05T02:57:06.557Z,6.47
2019-03-05T02:58:05.640Z,6.47
2019-03-05T02:59:05.597Z,6.47
2019-03-05T03:00:05.593Z,6.51
2019-03-05T03:01:05.585Z,6.58
2019-03-05T03:02:05.575Z,6.56
2019-03-05T03:03:05.659Z,6.62
2019-03-05T03:04:05.553Z,6.53
2019-03-05T03:05:05.531Z,6.56
2019-03-05T03:06:05.526Z,6.51
2019-03-05T03:07:05.517Z,6.61
2019-03-05T03:08:05.516Z,6.59
2019-03-05T03:09:05.495Z,6.50
2019-03-05T03:10:05.488Z,6.53
2019-03-05T03:11:05.470Z,6.65
2019-03-05T03:12:05.470Z,6.51
2019-03-05T03:13:05.443Z,6.59
2019-03-05T03:14:05.503Z,6.62
2019-03-05T03:15:05.423Z,6.63
2019-03-05T03:16:05.419Z,6.68
2019-03-05T03:17:05.405Z,6.65
2019-03-05T03:18:05.397Z,6.66
2019-03-05T03:19:05.372Z,6.71
2019-03-05T03:20:05.477Z,6.71
2019-03-05T03:21:05.353Z,6.65
2019-03-05T03:22:05.345Z,6.66
2019-03-05T03:23:05.333Z,6.73
2019-03-05T03:24:05.320Z,6.71
2019-03-05T03:25:05.345Z,6.66
2019-03-05T03:26:05.319Z,6.77
2019-03-05T03:27:05.294Z,6.76
2019-03-05T03:28:05.274Z,6.73
2019-03-05T03:29:05.264Z,6.80
2019-03-05T03:30:05.289Z,6.77
2019-03-05T03:31:05.349Z,6.83
2019-03-05T03:32:05.242Z,6.84
2019-03-05T03:33:05.364Z,6.81
2019-03-05T03:34:05.209Z,6.89
2019-03-05T03:35:05.202Z,6.91
2019-03-05T03:36:05.222Z,6.89
2019-03-05T03:37:05.178Z,6.84
2019-03-05T03:38:05.171Z,6.87
2019-03-05T03:39:06.044Z,6.84
2019-03-05T03:40:06.288Z,6.87
2019-03-05T03:41:05.204Z,6.94
2019-03-05T03:42:05.127Z,6.91
2019-03-05T03:43:05.116Z,6.89
2019-03-05T03:44:05.099Z,6.97
2019-03-05T03:45:05.091Z,7.02
2019-03-05T03:46:05.076Z,7.01
2019-03-05T03:47:05.091Z,7.04
2019-03-05T03:48:05.067Z,7.02
2019-03-05T03:49:05.055Z,7.07
2019-03-05T03:50:05.041Z,7.07
2019-03-05T03:51:05.032Z,7.04
2019-03-05T03:52:05.147Z,7.09
2019-03-05T03:53:05.123Z,7.07
2019-03-05T03:54:04.993Z,7.09
2019-03-05T03:55:04.982Z,7.17
2019-03-05T03:56:04.969Z,7.20
2019-03-05T03:57:04.963Z,7.17
2019-03-05T03:58:04.970Z,7.15
2019-03-05T03:59:04.946Z,7.20
2019-03-05T04:00:04.974Z,7.13
2019-03-05T04:01:07.087Z,7.23
2019-03-05T04:02:04.908Z,7.22
2019-03-05T04:03:04.933Z,7.17
2019-03-05T04:04:04.883Z,7.19
2019-03-05T04:05:04.865Z,7.17
2019-03-05T04:06:04.861Z,7.13
2019-03-05T04:07:04.867Z,7.31
2019-03-05T04:08:04.837Z,7.24
2019-03-05T04:09:04.833Z,7.13
2019-03-05T04:10:04.810Z,7.23
2019-03-05T04:11:04.819Z,7.32
2019-03-05T04:12:04.795Z,7.24
2019-03-05T04:13:04.779Z,7.17
2019-03-05T04:14:04.778Z,7.20
2019-03-05T04:15:04.755Z,7.20
2019-03-05T04:16:04.800Z,7.24
2019-03-05T04:17:04.737Z,7.29
2019-03-05T04:18:04.725Z,7.19
2019-03-05T04:19:04.731Z,7.23
2019-03-05T04:20:04.704Z,7.19
2019-03-05T04:21:04.696Z,7.19
2019-03-05T04:22:04.682Z,7.24
2019-03-05T04:23:04.695Z,7.24
2019-03-05T04:24:04.730Z,7.13
2019-03-05T04:25:04.648Z,7.31
2019-03-05T04:26:04.635Z,7.19
2019-03-05T04:27:04.621Z,7.29
2019-03-05T04:28:04.611Z,7.16
2019-03-05T04:29:04.609Z,7.17
2019-03-05T04:30:04.623Z,7.20
2019-03-05T04:31:04.579Z,7.20
2019-03-05T04:32:04.577Z,7.20
2019-03-05T04:33:04.564Z,7.22
2019-03-05T04:34:04.570Z,7.22
2019-03-05T04:35:04.532Z,7.16
2019-03-05T04:36:04.585Z,7.20
2019-03-05T04:37:04.514Z,7.20
2019-03-05T04:38:04.500Z,7.19
2019-03-05T04:39:04.487Z,7.22
2019-03-05T04:40:04.540Z,7.17
2019-03-05T04:41:04.474Z,7.12
2019-03-05T04:42:04.453Z,7.20
2019-03-05T04:43:04.442Z,7.09
2019-03-05T04:44:04.437Z,7.20
2019-03-05T04:45:04.426Z,7.07
2019-03-05T04:46:04.447Z,7.15
2019-03-05T04:47:04.413Z,7.15
2019-03-05T04:48:04.390Z,7.09
2019-03-05T04:49:04.376Z,7.17
2019-03-05T04:50:04.373Z,7.07
2019-03-05T04:51:04.365Z,7.07
2019-03-05T04:52:04.349Z,7.12
2019-03-05T04:53:04.338Z,7.13
2019-03-05T04:54:04.325Z,7.07
2019-03-05T04:55:04.314Z,7.07
2019-03-05T04:56:04.336Z,7.13
2019-03-05T04:57:04.384Z,7.08
2019-03-05T04:58:04.283Z,7.09
2019-03-05T04:59:04.267Z,7.07
2019-03-05T05:00:04.262Z,7.08
2019-03-05T05:01:04.243Z,7.04
2019-03-05T05:02:04.236Z,6.99
2019-03-05T05:03:04.239Z,7.04
2019-03-05T05:04:04.218Z,6.90
2019-03-05T05:05:04.636Z,6.97
2019-03-05T05:06:04.194Z,6.87
2019-03-05T05:07:04.565Z,7.01
2019-03-05T05:08:04.225Z,6.99
2019-03-05T05:09:04.228Z,6.99
2019-03-05T05:10:04.150Z,6.98
2019-03-05T05:11:04.147Z,6.91
2019-03-05T05:12:04.158Z,6.95
2019-03-05T05:13:04.114Z,7.01
2019-03-05T05:14:04.137Z,7.02
2019-03-05T05:15:04.094Z,7.01
2019-03-05T05:16:04.076Z,6.97
2019-03-05T05:17:04.071Z,6.95
2019-03-05T05:18:04.068Z,6.99
2019-03-05T05:19:04.078Z,7.04
2019-03-05T05:20:04.032Z,6.97
2019-03-05T05:21:04.024Z,6.97
2019-03-05T05:22:04.016Z,6.94
2019-03-05T05:23:04.001Z,6.89
2019-03-05T05:24:04.025Z,6.94
2019-03-05T05:25:04.027Z,6.97
2019-03-05T05:26:03.967Z,6.97
2019-03-05T05:27:03.981Z,6.90
2019-03-05T05:28:03.949Z,6.95
2019-03-05T05:29:03.932Z,6.95
2019-03-05T05:30:03.927Z,6.90
2019-03-05T05:31:03.948Z,6.97
2019-03-05T05:32:03.906Z,6.95
2019-03-05T05:33:03.892Z,6.95
2019-03-05T05:34:03.892Z,6.94
2019-03-05T05:35:03.871Z,6.87
2019-03-05T05:36:03.896Z,6.98
2019-03-05T05:37:03.850Z,6.94
2019-03-05T05:38:03.844Z,6.90
2019-03-05T05:39:03.836Z,6.98
2019-03-05T05:40:04.851Z,6.91
2019-03-05T05:41:03.850Z,6.97
2019-03-05T05:42:03.788Z,6.98
2019-03-05T05:43:03.784Z,6.89
2019-03-05T05:44:03.766Z,6.97
2019-03-05T05:45:03.765Z,6.91
2019-03-05T05:46:03.766Z,6.89
2019-03-05T05:47:03.831Z,6.94
2019-03-05T05:48:03.735Z,6.95
2019-03-05T05:49:04.070Z,6.91
2019-03-05T05:50:03.727Z,6.91
2019-03-05T05:51:03.733Z,6.94
2019-03-05T05:52:03.679Z,6.97
2019-03-05T05:53:03.710Z,6.94
2019-03-05T05:54:03.662Z,6.95
2019-03-05T05:55:03.651Z,6.94
2019-03-05T05:56:03.635Z,6.90
2019-03-05T05:57:03.622Z,6.91
2019-03-05T05:58:03.644Z,6.98
2019-03-05T05:59:03.603Z,6.97
2019-03-05T06:00:03.594Z,6.94
2019-03-05T06:01:03.603Z,6.89
2019-03-05T06:02:03.569Z,6.97
2019-03-05T06:03:03.555Z,6.89
2019-03-05T06:04:03.615Z,7.01
2019-03-05T06:05:03.538Z,7.04
2019-03-05T06:06:03.528Z,6.90
2019-03-05T06:07:03.518Z,6.98
2019-03-05T06:08:03.499Z,6.95
2019-03-05T06:09:03.488Z,7.01
2019-03-05T06:10:03.499Z,6.87
2019-03-05T06:11:03.468Z,6.99
2019-03-05T06:12:03.458Z,7.02
2019-03-05T06:13:03.453Z,7.01
2019-03-05T06:14:03.459Z,6.94
2019-03-05T06:15:03.423Z,6.95
2019-03-05T06:16:03.417Z,7.01
2019-03-05T06:17:03.407Z,7.05
2019-03-05T06:18:03.397Z,7.12
2019-03-05T06:19:03.450Z,7.09
2019-03-05T06:20:03.375Z,7.13
2019-03-05T06:21:03.356Z,7.07
2019-03-05T06:22:03.353Z,7.09
2019-03-05T06:23:03.338Z,7.07
2019-03-05T06:24:03.323Z,7.04
2019-03-05T06:25:03.346Z,7.07
2019-03-05T06:26:03.308Z,7.09
2019-03-05T06:27:03.297Z,7.09
2019-03-05T06:28:03.279Z,7.08
2019-03-05T06:29:03.278Z,7.12
2019-03-05T06:30:03.268Z,7.05
2019-03-05T06:31:10.604Z,7.08
2019-03-05T06:32:03.237Z,7.12
2019-03-05T06:33:03.228Z,7.07
2019-03-05T06:34:03.213Z,7.15
2019-03-05T06:35:03.235Z,7.07
2019-03-05T06:36:03.198Z,7.12
2019-03-05T06:37:03.217Z,7.15
2019-03-05T06:38:03.184Z,7.09
2019-03-05T06:39:03.165Z,7.16
2019-03-05T06:40:03.145Z,7.07
2019-03-05T06:41:03.189Z,7.12
2019-03-05T06:42:03.124Z,7.09
2019-03-05T06:43:03.128Z,7.13
2019-03-05T06:44:03.102Z,7.16
2019-03-05T06:45:03.106Z,7.15
2019-03-05T06:46:03.083Z,7.13
2019-03-05T06:47:03.075Z,7.20
2019-03-05T06:48:03.061Z,7.20
2019-03-05T06:49:03.052Z,7.13
2019-03-05T06:50:03.135Z,7.19
2019-03-05T06:51:03.032Z,7.15
2019-03-05T06:52:03.015Z,7.15
2019-03-05T06:53:03.011Z,7.22
2019-03-05T06:54:02.996Z,7.16
2019-03-05T06:55:02.982Z,7.15
2019-03-05T06:56:03.064Z,7.32
2019-03-05T06:57:02.960Z,7.26
2019-03-05T06:58:02.966Z,7.27
2019-03-05T06:59:02.940Z,7.24
2019-03-05T07:00:02.927Z,7.32
2019-03-05T07:01:02.920Z,7.32
2019-03-05T07:02:02.954Z,7.32
2019-03-05T07:03:02.896Z,7.35
2019-03-05T07:04:02.882Z,7.32
2019-03-05T07:05:02.869Z,7.38
2019-03-05T07:06:02.864Z,7.32
2019-03-05T07:07:02.850Z,7.26
2019-03-05T07:08:02.873Z,7.38
2019-03-05T07:09:02.836Z,7.35
2019-03-05T07:10:02.815Z,7.34
2019-03-05T07:11:02.820Z,7.38
2019-03-05T07:12:02.798Z,7.44
2019-03-05T07:13:02.856Z,7.45
2019-03-05T07:14:02.780Z,7.37
2019-03-05T07:15:02.793Z,7.34
2019-03-05T07:16:02.749Z,7.41
2019-03-05T07:17:02.744Z,7.24
2019-03-05T07:18:02.733Z,7.41
2019-03-05T07:19:02.734Z,7.42
2019-03-05T07:20:02.709Z,7.40
2019-03-05T07:21:02.703Z,7.49
2019-03-05T07:22:02.686Z,7.50
2019-03-05T07:23:02.684Z,7.42
2019-03-05T07:24:02.676Z,7.41
2019-03-05T07:25:02.655Z,7.47
2019-03-05T07:26:02.667Z,7.49
2019-03-05T07:27:02.641Z,7.58
2019-03-05T07:28:02.623Z,7.59
2019-03-05T07:29:02.647Z,7.56
2019-03-05T07:30:02.597Z,7.58
2019-03-05T07:31:02.588Z,7.63
2019-03-05T07:32:02.576Z,7.62
2019-03-05T07:33:02.585Z,7.66
2019-03-05T07:34:02.573Z,7.67
2019-03-05T07:35:02.548Z,7.77
2019-03-05T07:36:02.532Z,7.77
2019-03-05T07:37:02.528Z,7.93
2019-03-05T07:38:02.520Z,7.94
2019-03-05T07:39:02.537Z,7.90
2019-03-05T07:40:02.532Z,7.97
2019-03-05T07:41:02.482Z,7.93
2019-03-05T07:42:02.464Z,7.94
2019-03-05T07:43:02.461Z,7.99
2019-03-05T07:44:02.452Z,8.02
2019-03-05T07:45:02.484Z,8.03
2019-03-05T07:46:02.422Z,8.04
2019-03-05T07:47:02.410Z,8.03
2019-03-05T07:48:02.413Z,8.17
2019-03-05T07:49:02.392Z,8.11
2019-03-05T07:50:02.384Z,8.21
2019-03-05T07:51:02.375Z,8.29
2019-03-05T07:52:02.359Z,8.18
2019-03-05T07:53:02.351Z,8.32
2019-03-05T07:54:02.333Z,8.29
2019-03-05T07:55:12.942Z,8.36
2019-03-05T07:56:03.333Z,8.32
2019-03-05T07:57:02.304Z,8.30
2019-03-05T07:58:02.289Z,8.29
2019-03-05T07:59:02.285Z,8.25
2019-03-05T08:00:02.269Z,8.26
2019-03-05T08:01:02.284Z,8.29
2019-03-05T08:02:02.247Z,8.30
2019-03-05T08:03:02.240Z,8.29
2019-03-05T08:04:02.284Z,8.28
2019-03-05T08:05:02.217Z,8.39
2019-03-05T08:06:02.204Z,8.42
2019-03-05T08:07:02.225Z,8.48
2019-03-05T08:08:02.187Z,8.37
2019-03-05T08:09:02.176Z,8.33
2019-03-05T08:10:02.161Z,8.37
2019-03-05T08:11:02.181Z,8.42
2019-03-05T08:12:02.137Z,8.44
2019-03-05T08:13:02.129Z,8.42
2019-03-05T08:14:02.119Z,8.33
2019-03-05T08:15:02.102Z,8.42
2019-03-05T08:16:02.891Z,8.39
2019-03-05T08:17:02.132Z,8.50
2019-03-05T08:18:02.105Z,8.45
2019-03-05T08:19:02.058Z,8.37
2019-03-05T08:20:02.046Z,8.39
2019-03-05T08:21:02.040Z,8.40
2019-03-05T08:22:02.061Z,8.44
2019-03-05T08:23:02.045Z,8.35
2019-03-05T08:24:02.005Z,8.42
2019-03-05T08:25:02.004Z,8.30
2019-03-05T08:26:01.983Z,8.44
2019-03-05T08:27:02.008Z,8.36
2019-03-05T08:28:01.959Z,8.35
2019-03-05T08:29:03.117Z,8.39
2019-03-05T08:30:13.523Z,8.37
2019-03-05T08:31:02.924Z,8.32
2019-03-05T08:32:01.912Z,8.36
2019-03-05T08:33:02.229Z,8.48
2019-03-05T08:34:01.896Z,8.33
2019-03-05T08:35:01.899Z,8.36
2019-03-05T08:36:01.870Z,8.29
2019-03-05T08:37:01.859Z,8.20
2019-03-05T08:38:01.851Z,8.25
2019-03-05T08:39:01.883Z,8.21
2019-03-05T08:40:01.825Z,8.35
2019-03-05T08:41:01.819Z,8.39
2019-03-05T08:42:01.807Z,8.35
2019-03-05T08:43:01.796Z,8.42
2019-03-05T08:44:01.850Z,8.88
2019-03-05T08:45:01.771Z,8.94
2019-03-05T08:46:01.765Z,8.94
2019-03-05T08:47:01.752Z,9.01
2019-03-05T08:48:01.741Z,9.09
2019-03-05T08:49:01.744Z,9.13
2019-03-05T08:50:01.769Z,9.39
2019-03-05T08:51:01.706Z,9.32
2019-03-05T08:52:01.693Z,9.20
2019-03-05T08:53:01.685Z,9.02
2019-03-05T08:54:01.676Z,8.90
2019-03-05T08:55:01.667Z,8.81
2019-03-05T08:56:02.173Z,8.84
2019-03-05T08:57:01.645Z,8.88
2019-03-05T08:58:01.628Z,8.96
2019-03-05T08:59:01.619Z,8.94
2019-03-05T09:00:01.625Z,8.90
2019-03-05T09:01:01.601Z,8.97
2019-03-05T09:02:01.586Z,8.99
2019-03-05T09:03:01.590Z,9.09
2019-03-05T09:04:01.566Z,9.02
2019-03-05T09:05:01.651Z,9.18
2019-03-05T09:06:01.547Z,9.23
2019-03-05T09:07:01.534Z,9.25
2019-03-05T09:08:01.525Z,9.24
2019-03-05T09:09:01.518Z,9.49
2019-03-05T09:10:01.501Z,9.40
2019-03-05T09:11:01.554Z,9.18
2019-03-05T09:12:01.485Z,9.20
2019-03-05T09:13:01.470Z,9.13
2019-03-05T09:14:01.461Z,9.10
2019-03-05T09:15:01.446Z,9.09
2019-03-05T09:16:01.440Z,8.94
2019-03-05T09:17:01.476Z,8.93
2019-03-05T09:18:01.509Z,8.88
2019-03-05T09:19:01.406Z,8.83
2019-03-05T09:20:01.482Z,8.81
2019-03-05T09:21:01.390Z,8.69
2019-03-05T09:22:01.372Z,8.65
2019-03-05T09:23:01.360Z,8.73
2019-03-05T09:24:01.383Z,8.75
2019-03-05T09:25:01.341Z,8.79
2019-03-05T09:26:01.329Z,8.86
2019-03-05T09:27:01.320Z,8.88
2019-03-05T09:28:01.332Z,8.71
2019-03-05T09:29:01.304Z,8.81
2019-03-05T09:30:01.288Z,8.76
2019-03-05T09:31:01.270Z,8.76
2019-03-05T09:32:01.261Z,8.73
2019-03-05T09:33:01.289Z,8.72
2019-03-05T09:34:01.239Z,8.75
2019-03-05T09:35:01.230Z,8.79
2019-03-05T09:36:01.219Z,8.94
2019-03-05T09:37:01.210Z,9.04
2019-03-05T09:38:01.230Z,9.02
2019-03-05T09:39:03.150Z,9.31
2019-03-05T09:40:01.172Z,9.32
2019-03-05T09:41:01.164Z,9.23
2019-03-05T09:42:01.201Z,9.31
2019-03-05T09:43:01.182Z,9.32
2019-03-05T09:44:01.133Z,9.27
2019-03-05T09:45:01.131Z,9.27
2019-03-05T09:46:01.112Z,9.21
2019-03-05T09:47:01.096Z,9.18
2019-03-05T09:48:01.093Z,9.27
2019-03-05T09:49:01.111Z,9.12
2019-03-05T09:50:01.063Z,9.01
2019-03-05T09:51:01.056Z,8.94
2019-03-05T09:52:01.042Z,8.90
2019-03-05T09:53:01.036Z,8.88
2019-03-05T09:54:01.093Z,8.90
2019-03-05T09:55:01.032Z,8.73
2019-03-05T09:56:01.009Z,8.69
2019-03-05T09:57:00.988Z,8.63
2019-03-05T09:58:07.951Z,8.72
2019-03-05T09:59:02.017Z,8.58
2019-03-05T10:00:00.981Z,8.63
2019-03-05T10:01:00.966Z,8.55
2019-03-05T10:02:00.938Z,8.51
2019-03-05T10:03:00.924Z,8.40
2019-03-05T10:04:00.935Z,8.42
2019-03-05T10:05:00.937Z,8.30
2019-03-05T10:06:00.924Z,8.29
2019-03-05T10:07:00.880Z,8.29
2019-03-05T10:08:00.868Z,8.29
2019-03-05T10:09:00.857Z,8.18
2019-03-05T10:10:00.849Z,8.51
2019-03-05T10:11:00.870Z,8.35
2019-03-05T10:12:00.829Z,8.45
2019-03-05T10:13:04.117Z,8.45
2019-03-05T10:14:00.805Z,8.51
2019-03-05T10:15:00.808Z,8.69
2019-03-05T10:16:00.782Z,8.90
2019-03-05T10:17:00.807Z,9.06
2019-03-05T10:18:11.791Z,9.10
2019-03-05T10:19:01.746Z,9.20
2019-03-05T10:20:00.750Z,9.57
2019-03-05T10:21:00.794Z,9.64
2019-03-05T10:22:00.714Z,9.70
2019-03-05T10:23:00.712Z,9.66
2019-03-05T10:24:09.930Z,9.66
2019-03-05T10:25:05.994Z,9.58
2019-03-05T10:26:00.669Z,9.60
2019-03-05T10:27:00.755Z,9.58
2019-03-05T10:28:00.655Z,9.63
2019-03-05T10:29:00.641Z,9.60
2019-03-05T10:30:00.633Z,9.52
2019-03-05T10:31:00.622Z,9.85
2019-03-05T10:32:00.611Z,9.88
2019-03-05T10:33:00.631Z,9.96
2019-03-05T10:34:00.597Z,10.40
2019-03-05T10:35:00.576Z,10.52
2019-03-05T10:36:00.567Z,10.83
2019-03-05T10:37:00.592Z,11.06
2019-03-05T10:38:00.542Z,11.34
2019-03-05T10:39:00.530Z,11.44
2019-03-05T10:40:00.523Z,11.21
2019-03-05T10:41:00.509Z,10.89
2019-03-05T10:42:00.530Z,10.77
2019-03-05T10:43:08.496Z,10.52
2019-03-05T10:44:01.477Z,10.34
2019-03-05T10:45:00.471Z,10.28
2019-03-05T10:46:00.458Z,10.22
2019-03-05T10:47:00.453Z,10.24
2019-03-05T10:48:00.434Z,10.21
2019-03-05T10:49:00.478Z,10.25
2019-03-05T10:50:00.414Z,10.65
2019-03-05T10:51:00.396Z,10.47
2019-03-05T10:52:00.388Z,10.28
2019-03-05T10:53:00.401Z,10.84
2019-03-05T10:54:02.269Z,10.71
2019-03-05T10:55:00.394Z,10.68
2019-03-05T10:56:00.349Z,10.65
2019-03-05T10:57:00.337Z,10.68
2019-03-05T10:58:00.372Z,10.77
2019-03-05T10:59:00.318Z,10.77
2019-03-05T11:00:00.417Z,10.62
2019-03-05T11:01:00.296Z,10.56
2019-03-05T11:02:00.285Z,10.33
2019-03-05T11:03:00.315Z,10.33
2019-03-05T11:04:00.261Z,10.17
2019-03-05T11:05:00.348Z,10.18
2019-03-05T11:06:00.237Z,10.07
2019-03-05T11:07:00.261Z,10.07
2019-03-05T11:08:00.245Z,10.07
2019-03-05T11:09:00.234Z,10.00
2019-03-05T11:10:00.359Z,10.01
2019-03-05T11:11:00.183Z,9.93
2019-03-05T11:12:00.165Z,9.83
2019-03-05T11:13:00.158Z,9.78
2019-03-05T11:14:00.178Z,9.82
2019-03-05T11:15:00.190Z,9.78
2019-03-05T11:16:00.182Z,9.71
2019-03-05T11:17:00.109Z,9.61
2019-03-05T11:18:00.100Z,9.61
2019-03-05T11:19:00.100Z,9.53
2019-03-05T11:20:00.358Z,9.46
2019-03-05T11:21:00.068Z,9.53
2019-03-05T11:22:00.060Z,9.43
2019-03-05T11:23:00.044Z,9.42
2019-03-05T11:24:00.049Z,9.40
2019-03-05T11:25:00.111Z,9.53
2019-03-05T11:26:00.017Z,9.86
2019-03-05T11:27:00.013Z,10.46
2019-03-05T11:27:59.998Z,10.91
2019-03-05T11:28:59.984Z,10.80
2019-03-05T11:30:00.003Z,10.52
2019-03-05T11:30:59.958Z,10.37
2019-03-05T11:31:59.951Z,10.34
2019-03-05T11:32:59.942Z,10.24
2019-03-05T11:33:59.930Z,10.18
2019-03-05T11:35:00.390Z,10.24
2019-03-05T11:35:59.914Z,10.15
2019-03-05T11:37:00.119Z,10.14
2019-03-05T11:37:59.892Z,10.12
2019-03-05T11:38:59.875Z,10.07
2019-03-05T11:39:59.862Z,10.01
2019-03-05T11:40:59.889Z,9.88
2019-03-05T11:41:59.837Z,9.75
2019-03-05T11:42:59.832Z,9.78
2019-03-05T11:43:59.822Z,9.68
2019-03-05T11:45:07.431Z,9.73
2019-03-05T11:46:00.844Z,9.67
2019-03-05T11:46:59.803Z,9.71
2019-03-05T11:47:59.779Z,9.66
2019-03-05T11:48:59.791Z,9.60
2019-03-05T11:49:59.758Z,9.60
2019-03-05T11:50:59.808Z,9.61
2019-03-05T11:51:59.764Z,9.57
2019-03-05T11:52:59.721Z,9.40
2019-03-05T11:53:59.712Z,9.48
2019-03-05T11:54:59.742Z,9.45
2019-03-05T11:55:59.737Z,9.43
2019-03-05T11:57:01.644Z,9.39
2019-03-05T11:57:59.662Z,9.46
2019-03-05T11:58:59.660Z,9.40
2019-03-05T11:59:59.646Z,9.31
2019-03-05T12:00:59.636Z,9.31
2019-03-05T12:01:59.713Z,9.31
2019-03-05T12:02:59.617Z,9.31
2019-03-05T12:03:59.601Z,9.18
2019-03-05T12:04:59.600Z,8.99
2019-03-05T12:05:59.599Z,9.04
2019-03-05T12:06:59.715Z,8.99
2019-03-05T12:07:59.602Z,9.02
2019-03-05T12:08:59.548Z,9.05
2019-03-05T12:09:59.539Z,9.15
2019-03-05T12:10:59.523Z,9.04
2019-03-05T12:11:59.514Z,9.24
2019-03-05T12:12:59.552Z,9.67
2019-03-05T12:13:59.513Z,10.07
2019-03-05T12:14:59.482Z,9.89
2019-03-05T12:15:59.493Z,9.76
2019-03-05T12:16:59.466Z,9.71
2019-03-05T12:17:59.579Z,9.58
2019-03-05T12:18:59.457Z,9.58
2019-03-05T12:19:59.496Z,9.45
2019-03-05T12:20:59.417Z,9.43
2019-03-05T12:21:59.413Z,9.40
2019-03-05T12:22:59.396Z,9.49
2019-03-05T12:23:59.398Z,9.52
2019-03-05T12:25:01.760Z,9.57
2019-03-05T12:25:59.358Z,9.46
2019-03-05T12:26:59.356Z,9.46
2019-03-05T12:28:09.426Z,9.42
2019-03-05T12:29:00.395Z,9.43
2019-03-05T12:29:59.349Z,9.40
2019-03-05T12:30:59.309Z,9.40
2019-03-05T12:31:59.298Z,9.40
2019-03-05T12:32:59.282Z,9.57
2019-03-05T12:33:59.276Z,9.42
2019-03-05T12:34:59.295Z,9.83
2019-03-05T12:35:59.258Z,10.14
2019-03-05T12:36:59.243Z,10.28
2019-03-05T12:37:59.234Z,10.65
2019-03-05T12:38:59.218Z,10.92
2019-03-05T12:39:59.242Z,10.98
2019-03-05T12:40:59.201Z,10.80
2019-03-05T12:41:59.194Z,10.86
2019-03-05T12:42:59.181Z,10.86
2019-03-05T12:43:59.168Z,10.99
2019-03-05T12:44:59.187Z,11.28
2019-03-05T12:45:59.142Z,11.57
2019-03-05T12:46:59.136Z,11.74
2019-03-05T12:47:59.119Z,11.93
2019-03-05T12:48:59.107Z,12.09
2019-03-05T12:49:59.098Z,12.34
2019-03-05T12:50:59.122Z,12.46
2019-03-05T12:51:59.080Z,11.89
2019-03-05T12:52:59.068Z,11.82
2019-03-05T12:53:59.058Z,11.53
2019-03-05T12:54:59.093Z,11.28
2019-03-05T12:55:59.048Z,11.14
2019-03-05T12:56:59.027Z,10.91
2019-03-05T12:57:59.014Z,10.91
2019-03-05T12:58:58.999Z,10.60
2019-03-05T12:59:58.991Z,10.56
2019-03-05T13:00:59.046Z,10.51
2019-03-05T13:01:58.964Z,10.39
2019-03-05T13:02:58.959Z,10.22
2019-03-05T13:03:58.944Z,10.04
2019-03-05T13:04:58.946Z,9.97
2019-03-05T13:05:58.929Z,9.94
2019-03-05T13:06:58.982Z,9.70
2019-03-05T13:07:58.905Z,9.75
2019-03-05T13:08:58.900Z,9.79
2019-03-05T13:09:58.878Z,9.91
2019-03-05T13:10:58.925Z,9.88
2019-03-05T13:11:58.861Z,9.89
2019-03-05T13:12:58.850Z,9.97
2019-03-05T13:14:06.176Z,10.01
2019-03-05T13:14:59.820Z,10.15